Huvudsida
METAR-TAF:

METAR-TAF

Flygplatser :

Esbjergs flygplats

Esbjerg, Danmark

latitud: 55-32N, longitud: 008-34E, höjd: 30 m

Aktuellt väderrapport

Denna rapport gjordes för 39 minuter sedan, klockan 06:50 UTC
Vind 3 kt från väst/sydväst
Temperatur -1°C
Fuktighet 100%
Tryck 998 hPa
Sikt 10 km eller mer

METAR: EKEB 250650Z AUTO 24003KT 9999 FEW030/// SCT140/// M01/M01 Q0998

Tid: 08:29 (07:29 UTC)

Väderprognos

Denna rapport gjordes för 2 timmar och 4 minuter sedan, klockan 05:25 UTC
Prognos gäller från 25 kl. 06 UTC till 25 kl. 15 UTC
Vind 5 kt från väst/sydväst
Sikt 10 km eller mer
Brutna moln på en höjd av 2000 ft
Temporärt
från 25 kl. 06 UTC till 25 kl. 15 UTC
Sikt: 4000 m
Få moln på en höjd av 1500 ft, Cumulonimbus.
lätta snöbyar, regn

TAF: EKEB 250525Z 2506/2515 25005KT 9999 BKN020 TEMPO 2506/2515 4000 -SHSNRA FEW015CB

Aktuella väderrapporter och prognoser från 4000 flygplatser (METAR- och TAF-rapporter).

De tillgängliga stationerna syns som gula och röda prickar på kartan.

För musen över prickarna för att se namnen på stationerna.

Klicka sedan för att få väderrapporter och prognoser.

För att ändra kartan: Klicka på de gröna knapparna med ett svart kors på för att zooma in; den gröna knappen med ett streck på för att zooma ut; eller på de gröna pilarna för angränsande kartor.


METAR-TAF: